createdAt,value
2023-06-11T00:01:45.658Z,25.70
2023-06-11T00:06:48.103Z,25.70
2023-06-11T00:11:50.452Z,25.70
2023-06-11T00:16:52.804Z,25.70
2023-06-11T00:21:57.432Z,25.60
2023-06-11T00:27:02.868Z,25.50
2023-06-11T00:32:05.718Z,25.20
2023-06-11T00:37:08.056Z,24.60
2023-06-11T00:42:11.586Z,24.70
2023-06-11T00:47:16.348Z,24.40
2023-06-11T00:52:19.777Z,24.10
2023-06-11T00:57:26.242Z,23.80
2023-06-11T01:02:40.611Z,24.20
2023-06-11T01:07:51.927Z,24.70
2023-06-11T01:13:02.710Z,24.90
2023-06-11T01:18:20.539Z,25.00
2023-06-11T01:23:42.372Z,25.10
2023-06-11T01:28:51.268Z,25.20
2023-06-11T01:33:54.344Z,25.10
2023-06-11T01:39:00.244Z,25.00
2023-06-11T01:44:30.634Z,24.30
2023-06-11T01:49:33.029Z,24.00
2023-06-11T01:54:35.668Z,24.40
2023-06-11T01:59:37.865Z,24.40
2023-06-11T02:04:40.051Z,24.50
2023-06-11T02:09:42.392Z,24.40
2023-06-11T02:14:44.633Z,24.50
2023-06-11T02:19:46.778Z,24.00
2023-06-11T02:24:49.116Z,24.00
2023-06-11T02:29:51.584Z,23.90
2023-06-11T02:34:53.891Z,23.10
2023-06-11T02:39:56.297Z,23.50
2023-06-11T02:44:58.489Z,24.00
2023-06-11T02:50:00.980Z,24.30
2023-06-11T02:55:03.463Z,23.80
2023-06-11T03:00:07.384Z,23.50
2023-06-11T03:05:10.153Z,24.00
2023-06-11T03:10:13.672Z,24.00
2023-06-11T03:15:16.082Z,23.80
2023-06-11T03:20:18.226Z,23.40
2023-06-11T03:25:20.606Z,22.70
2023-06-11T03:30:22.783Z,22.60
2023-06-11T03:35:25.224Z,23.20
2023-06-11T03:40:28.457Z,23.50
2023-06-11T03:45:32.008Z,23.30
2023-06-11T03:50:34.890Z,22.60
2023-06-11T03:55:37.409Z,23.30
2023-06-11T04:00:40.662Z,23.10
2023-06-11T04:05:43.714Z,22.60
2023-06-11T04:10:46.561Z,22.90
2023-06-11T04:15:48.791Z,23.40
2023-06-11T04:20:51.181Z,23.70
2023-06-11T04:25:56.545Z,23.60
2023-06-11T04:31:01.113Z,23.40
2023-06-11T04:36:09.938Z,23.50
2023-06-11T04:41:13.554Z,23.50
2023-06-11T04:46:17.650Z,23.70
2023-06-11T04:51:21.866Z,24.00
2023-06-11T04:56:27.048Z,24.10
2023-06-11T05:01:31.699Z,24.30
2023-06-11T05:06:35.648Z,24.30
2023-06-11T05:11:45.505Z,24.20
2023-06-11T05:16:51.829Z,24.10
2023-06-11T05:21:54.461Z,24.20
2023-06-11T05:26:57.808Z,24.20
2023-06-11T05:32:01.817Z,23.80
2023-06-11T05:37:05.443Z,24.00
2023-06-11T05:42:08.785Z,24.00
2023-06-11T05:47:13.188Z,23.80
2023-06-11T05:52:15.506Z,23.80
2023-06-11T05:57:24.272Z,23.80
2023-06-11T06:02:30.024Z,23.50
2023-06-11T06:07:34.554Z,23.90
2023-06-11T06:12:36.770Z,24.10
2023-06-11T06:17:39.880Z,24.00
2023-06-11T06:22:42.701Z,23.90
2023-06-11T06:27:45.097Z,24.00
2023-06-11T06:32:47.675Z,23.40
2023-06-11T06:37:50.601Z,23.60
2023-06-11T06:42:52.908Z,23.90
2023-06-11T06:48:03.374Z,23.70
2023-06-11T06:53:06.255Z,23.60
2023-06-11T06:58:08.514Z,24.20
2023-06-11T07:03:13.518Z,24.60
2023-06-11T07:08:16.273Z,24.70
2023-06-11T07:13:21.446Z,24.70
2023-06-11T07:18:23.943Z,24.90
2023-06-11T07:23:29.177Z,24.70
2023-06-11T07:28:31.969Z,24.90
2023-06-11T07:33:35.215Z,25.40
2023-06-11T07:38:37.766Z,25.40
2023-06-11T07:43:40.712Z,25.70
2023-06-11T07:48:46.426Z,26.00
2023-06-11T07:53:48.981Z,25.80
2023-06-11T07:58:51.338Z,26.20
2023-06-11T08:03:53.564Z,26.20
2023-06-11T08:08:57.117Z,26.60
2023-06-11T08:13:59.314Z,27.00
2023-06-11T08:19:01.810Z,27.20
2023-06-11T08:24:05.078Z,26.80
2023-06-11T08:29:16.835Z,27.50
2023-06-11T08:34:20.248Z,27.70
2023-06-11T08:39:22.440Z,27.10
2023-06-11T08:44:27.244Z,27.60
2023-06-11T08:49:31.703Z,27.50
2023-06-11T08:54:34.177Z,27.70
2023-06-11T08:59:36.380Z,28.40
2023-06-11T09:04:43.051Z,28.20
2023-06-11T09:09:45.324Z,28.60
2023-06-11T09:14:53.746Z,29.30
2023-06-11T09:19:57.389Z,29.30
2023-06-11T09:25:04.992Z,29.60
2023-06-11T09:30:13.000Z,29.20
2023-06-11T09:35:20.200Z,29.30
2023-06-11T09:40:25.185Z,29.40
2023-06-11T09:45:27.796Z,29.00
2023-06-11T09:50:34.285Z,30.00
2023-06-11T09:55:37.051Z,30.40
2023-06-11T10:00:39.676Z,30.50
2023-06-11T10:05:42.319Z,30.60
2023-06-11T10:10:52.881Z,31.10
2023-06-11T10:15:55.333Z,31.60
2023-06-11T10:21:06.019Z,31.00
2023-06-11T10:26:13.562Z,31.20
2023-06-11T10:31:41.062Z,31.30
2023-06-11T10:36:43.383Z,31.80
2023-06-11T10:41:45.959Z,32.50
2023-06-11T10:46:54.668Z,32.80
2023-06-11T10:51:57.324Z,33.00
2023-06-11T10:57:04.475Z,33.00
2023-06-11T11:02:13.510Z,32.60
2023-06-11T11:07:16.060Z,33.20
2023-06-11T11:12:18.308Z,32.30
2023-06-11T11:17:20.614Z,32.30
2023-06-11T11:22:22.856Z,33.70
2023-06-11T11:27:25.037Z,33.50
2023-06-11T11:32:35.576Z,34.00
2023-06-11T11:37:37.928Z,33.50
2023-06-11T11:42:50.826Z,33.30
2023-06-11T11:47:53.793Z,34.50
2023-06-11T11:53:16.635Z,33.90
2023-06-11T11:58:18.986Z,34.00
2023-06-11T12:03:23.660Z,34.40
2023-06-11T12:08:28.324Z,33.80
2023-06-11T12:13:31.309Z,32.70
2023-06-11T12:18:34.829Z,32.30
2023-06-11T12:23:37.024Z,32.50
2023-06-11T12:28:39.299Z,32.10
2023-06-11T12:33:41.479Z,32.70
2023-06-11T12:38:43.748Z,33.50
2023-06-11T12:43:45.914Z,32.40
2023-06-11T12:48:48.052Z,32.10
2023-06-11T12:53:53.934Z,33.30
2023-06-11T12:58:58.418Z,32.80
2023-06-11T13:04:00.871Z,32.40
2023-06-11T13:09:04.051Z,32.30
2023-06-11T13:14:06.406Z,32.80
2023-06-11T13:19:09.345Z,34.10
2023-06-11T13:24:11.750Z,34.60
2023-06-11T13:29:14.072Z,34.70
2023-06-11T13:34:16.431Z,34.10
2023-06-11T13:39:18.830Z,34.00
2023-06-11T13:44:21.066Z,34.30
2023-06-11T13:49:25.183Z,34.00
2023-06-11T13:54:29.675Z,34.10
2023-06-11T13:59:32.952Z,34.60
2023-06-11T14:04:35.168Z,34.30
2023-06-11T14:09:37.410Z,33.70
2023-06-11T14:14:39.632Z,33.70
2023-06-11T14:19:41.799Z,32.60
2023-06-11T14:24:44.318Z,33.00
2023-06-11T14:29:46.521Z,33.20
2023-06-11T14:34:48.681Z,33.40
2023-06-11T14:39:50.941Z,33.20
2023-06-11T14:44:53.197Z,32.50
2023-06-11T14:49:55.462Z,31.70
2023-06-11T14:54:59.768Z,31.00
2023-06-11T15:00:05.492Z,31.10
2023-06-11T15:05:08.728Z,31.60
2023-06-11T15:10:11.988Z,31.70
2023-06-11T15:15:14.474Z,31.60
2023-06-11T15:20:16.777Z,31.60
2023-06-11T15:25:19.157Z,31.80
2023-06-11T15:30:21.544Z,32.00
2023-06-11T15:35:23.773Z,31.40
2023-06-11T15:40:25.943Z,30.60
2023-06-11T15:45:28.337Z,30.50
2023-06-11T15:50:30.729Z,31.00
2023-06-11T15:55:33.135Z,30.90
2023-06-11T16:00:35.455Z,30.90
2023-06-11T16:05:38.888Z,30.80
2023-06-11T16:10:41.158Z,30.80
2023-06-11T16:15:45.113Z,31.00
2023-06-11T16:20:47.551Z,30.60
2023-06-11T16:25:49.939Z,30.40
2023-06-11T16:30:52.169Z,30.40
2023-06-11T16:35:54.266Z,30.20
2023-06-11T16:40:56.880Z,30.40
2023-06-11T16:45:59.142Z,30.30
2023-06-11T16:51:01.559Z,30.10
2023-06-11T16:56:04.290Z,30.00
2023-06-11T17:01:06.551Z,30.00
2023-06-11T17:06:08.729Z,30.00
2023-06-11T17:11:11.212Z,30.00
2023-06-11T17:16:13.449Z,30.10
2023-06-11T17:21:15.812Z,30.00
2023-06-11T17:26:17.993Z,30.00
2023-06-11T17:31:20.428Z,29.80
2023-06-11T17:36:22.638Z,29.60
2023-06-11T17:41:25.049Z,29.40
2023-06-11T17:46:27.334Z,29.40
2023-06-11T17:51:29.611Z,29.20
2023-06-11T17:56:32.113Z,29.20
2023-06-11T18:01:36.369Z,29.30
2023-06-11T18:06:39.430Z,29.20
2023-06-11T18:11:42.661Z,29.20
2023-06-11T18:16:44.873Z,29.10
2023-06-11T18:21:47.119Z,29.10
2023-06-11T18:26:49.427Z,29.20
2023-06-11T18:31:51.662Z,29.00
2023-06-11T18:36:53.868Z,28.90
2023-06-11T18:41:56.374Z,29.10
2023-06-11T18:47:02.249Z,29.10
2023-06-11T18:52:06.503Z,29.00
2023-06-11T18:57:09.747Z,28.80
2023-06-11T19:02:11.958Z,28.90
2023-06-11T19:07:16.513Z,29.00
2023-06-11T19:12:19.179Z,29.00
2023-06-11T19:17:21.626Z,28.90
2023-06-11T19:22:23.933Z,29.00
2023-06-11T19:27:29.641Z,28.90
2023-06-11T19:32:32.272Z,28.70
2023-06-11T19:37:35.938Z,28.60
2023-06-11T19:42:38.556Z,28.60
2023-06-11T19:47:41.006Z,28.60
2023-06-11T19:52:43.342Z,28.20
2023-06-11T19:57:45.873Z,28.10
2023-06-11T20:02:49.204Z,28.20
2023-06-11T20:07:51.436Z,28.20
2023-06-11T20:12:53.654Z,28.20
2023-06-11T20:17:55.921Z,28.10
2023-06-11T20:22:58.269Z,28.10
2023-06-11T20:28:00.593Z,28.00
2023-06-11T20:33:03.417Z,27.90
2023-06-11T20:38:05.815Z,27.70
2023-06-11T20:43:08.180Z,27.50
2023-06-11T20:48:10.401Z,27.50
2023-06-11T20:53:24.114Z,27.40
2023-06-11T20:58:35.203Z,27.30
2023-06-11T21:03:37.423Z,27.40
2023-06-11T21:08:39.600Z,27.00
2023-06-11T21:13:41.833Z,27.30
2023-06-11T21:18:44.035Z,27.30
2023-06-11T21:23:46.352Z,27.30
2023-06-11T21:28:48.873Z,26.90
2023-06-11T21:33:51.010Z,26.30
2023-06-11T21:38:53.186Z,26.20
2023-06-11T21:43:55.473Z,26.30
2023-06-11T21:48:59.321Z,26.10
2023-06-11T21:54:01.897Z,25.70
2023-06-11T21:59:04.232Z,26.20
2023-06-11T22:04:06.532Z,26.40
2023-06-11T22:09:14.870Z,26.40
2023-06-11T22:14:17.219Z,26.30
2023-06-11T22:19:20.030Z,26.30
2023-06-11T22:24:22.588Z,26.40
2023-06-11T22:29:24.760Z,26.30
2023-06-11T22:34:26.929Z,26.30
2023-06-11T22:39:29.172Z,26.20
2023-06-11T22:44:31.526Z,26.00
2023-06-11T22:49:34.415Z,25.80
2023-06-11T22:54:39.409Z,26.00
2023-06-11T22:59:41.899Z,26.00
2023-06-11T23:04:46.393Z,26.00
2023-06-11T23:09:48.881Z,25.90
2023-06-11T23:14:51.097Z,25.90
2023-06-11T23:19:53.242Z,25.80
2023-06-11T23:24:55.541Z,25.70
2023-06-11T23:29:57.928Z,25.70
2023-06-11T23:35:01.565Z,25.70
2023-06-11T23:40:05.668Z,25.70
2023-06-11T23:45:08.400Z,25.60
2023-06-11T23:50:11.481Z,25.60
2023-06-11T23:55:15.099Z,25.60
